Time;durP1;ratioP1;P1;durP2;ratioP2;P2;SDS_P1;SDS_P2;PMS_P1;PMS_P2;Temp;Humidity;BMP_temperature;BMP_pressure;BME280_temperature;BME280_humidity;BME280_pressure;Samples;Min_cycle;Max_cycle;Signal;HPM_P1;HPM_P2
2024/04/17 00:00:33;;;;;;;;;;;7.60;85.30;;;;;;5460535;26;20360;-60
2024/04/17 00:02:59;;;;;;;;;;;7.70;85.40;;;;;;5460744;26;19936;-59
2024/04/17 00:06:02;;;;;;;;;;;7.70;85.50;;;;;;5461590;26;19936;-59
2024/04/17 00:08:28;;;;;;;;;;;7.70;85.40;;;;;;5463055;26;19940;-59
2024/04/17 00:10:57;;;;;;;;;;;7.70;85.40;;;;;;5466251;26;19928;-59
2024/04/17 00:13:23;;;;;;;;;;;7.70;85.50;;;;;;5455491;26;19940;-60
2024/04/17 00:15:54;;;;;;;;;;;7.70;85.60;;;;;;5464108;26;19996;-58
2024/04/17 00:18:37;;;;;;;;;;;7.70;85.60;;;;;;5462813;26;19936;-60
2024/04/17 00:21:05;;;;;;;;;;;7.70;85.60;;;;;;5462516;26;19935;-59
2024/04/17 00:23:31;;;;;;;;;;;7.70;85.60;;;;;;5464883;26;19981;-59
2024/04/17 00:26:00;;;;;;;;;;;7.70;85.50;;;;;;5468119;26;19957;-59
2024/04/17 00:28:26;;;;;;;;;;;7.70;85.60;;;;;;5442656;26;19968;-62
2024/04/17 00:30:57;;;;;;;;;;;7.70;85.60;;;;;;5456798;26;19934;-60
2024/04/17 00:33:25;;;;;;;;;;;7.70;85.60;;;;;;5457526;26;19941;-60
2024/04/17 00:35:54;;;;;;;;;;;7.70;85.60;;;;;;5458458;26;20452;-59
2024/04/17 00:38:20;;;;;;;;;;;7.70;85.50;;;;;;5463645;26;20008;-60
2024/04/17 00:40:49;;;;;;;;;;;7.70;85.70;;;;;;5453815;26;19934;-61
2024/04/17 00:43:17;;;;;;;;;;;7.70;85.60;;;;;;5464597;26;19940;-59
2024/04/17 00:45:45;;;;;;;;;;;7.70;85.60;;;;;;5460868;26;19960;-59
2024/04/17 00:48:17;;;;;;;;;;;7.70;85.60;;;;;;5463459;26;19935;-59
2024/04/17 00:50:45;;;;;;;;;;;7.70;85.70;;;;;;5463707;26;19964;-58
2024/04/17 00:53:15;;;;;;;;;;;7.70;85.70;;;;;;5454070;26;19928;-58
2024/04/17 00:55:42;;;;;;;;;;;7.70;85.70;;;;;;5461673;26;19964;-60
2024/04/17 00:58:11;;;;;;;;;;;7.70;85.80;;;;;;5460265;26;19939;-59
2024/04/17 01:00:37;;;;;;;;;;;7.70;85.80;;;;;;5464852;26;20005;-60
2024/04/17 01:03:06;;;;;;;;;;;7.70;85.80;;;;;;5459955;26;19935;-62
2024/04/17 01:05:35;;;;;;;;;;;7.70;85.90;;;;;;5463683;26;19936;-62
2024/04/17 01:08:06;;;;;;;;;;;7.70;85.90;;;;;;5464905;26;19996;-63
2024/04/17 01:10:32;;;;;;;;;;;7.70;85.90;;;;;;5462506;26;19928;-62
2024/04/17 01:13:00;;;;;;;;;;;7.70;86.00;;;;;;5461211;26;20256;-63
2024/04/17 01:15:26;;;;;;;;;;;7.70;85.90;;;;;;5463771;26;19936;-64
2024/04/17 01:17:56;;;;;;;;;;;7.70;86.00;;;;;;5454191;26;19932;-63
2024/04/17 01:20:22;;;;;;;;;;;7.70;86.00;;;;;;5461345;26;19928;-63
2024/04/17 01:22:54;;;;;;;;;;;7.70;86.00;;;;;;5460061;26;19928;-63
2024/04/17 01:25:23;;;;;;;;;;;7.70;86.10;;;;;;5461903;26;19976;-63
2024/04/17 01:27:51;;;;;;;;;;;7.70;86.20;;;;;;5461676;26;19997;-64
2024/04/17 01:30:17;;;;;;;;;;;7.70;86.30;;;;;;5460128;26;19928;-63
2024/04/17 01:32:46;;;;;;;;;;;7.60;86.20;;;;;;5463247;26;19928;-63
2024/04/17 01:35:12;;;;;;;;;;;7.70;86.10;;;;;;5462129;26;19935;-63
2024/04/17 01:37:41;;;;;;;;;;;7.70;86.10;;;;;;5450954;26;19997;-63
2024/04/17 01:40:07;;;;;;;;;;;7.70;86.20;;;;;;5464400;26;19943;-63
2024/04/17 01:42:39;;;;;;;;;;;7.70;86.20;;;;;;5460600;26;19941;-63
2024/04/17 01:45:05;;;;;;;;;;;7.70;86.20;;;;;;5455872;26;19935;-63
2024/04/17 01:47:34;;;;;;;;;;;7.70;86.20;;;;;;5459559;26;19937;-63
2024/04/17 01:50:01;;;;;;;;;;;7.70;86.10;;;;;;5463069;26;19928;-64
2024/04/17 01:52:30;;;;;;;;;;;7.70;86.20;;;;;;5460494;26;19960;-63
2024/04/17 01:54:56;;;;;;;;;;;7.70;86.20;;;;;;5459993;26;19928;-65
2024/04/17 01:57:25;;;;;;;;;;;7.70;86.10;;;;;;5455315;26;19936;-64
2024/04/17 01:59:53;;;;;;;;;;;7.70;86.20;;;;;;5460767;26;19928;-63
2024/04/17 02:02:22;;;;;;;;;;;7.70;86.10;;;;;;5452224;26;19936;-62
2024/04/17 02:04:48;;;;;;;;;;;7.70;86.10;;;;;;5463608;26;20331;-63
2024/04/17 02:07:17;;;;;;;;;;;7.70;86.20;;;;;;5457040;26;20027;-63
2024/04/17 02:09:43;;;;;;;;;;;7.70;86.40;;;;;;5457543;26;19976;-63
2024/04/17 02:12:12;;;;;;;;;;;7.70;86.30;;;;;;5460246;26;20371;-61
2024/04/17 02:14:38;;;;;;;;;;;7.70;86.40;;;;;;5463139;26;20096;-62
2024/04/17 02:17:09;;;;;;;;;;;7.70;86.40;;;;;;5457416;26;19976;-63
2024/04/17 02:19:35;;;;;;;;;;;7.70;86.40;;;;;;5459759;26;19928;-62
2024/04/17 02:22:04;;;;;;;;;;;7.70;86.40;;;;;;5456212;26;19935;-64
2024/04/17 02:24:30;;;;;;;;;;;7.70;86.50;;;;;;5432050;26;19937;-63
2024/04/17 02:26:58;;;;;;;;;;;7.70;86.40;;;;;;5414885;26;20375;-62
2024/04/17 02:29:24;;;;;;;;;;;7.70;86.20;;;;;;5424128;26;20360;-62
2024/04/17 02:31:53;;;;;;;;;;;7.70;86.30;;;;;;5425380;26;19936;-62
2024/04/17 02:34:22;;;;;;;;;;;7.70;86.20;;;;;;5427840;26;20368;-62
2024/04/17 02:36:51;;;;;;;;;;;7.70;86.40;;;;;;5428618;26;19929;-62
2024/04/17 02:39:17;;;;;;;;;;;7.70;86.30;;;;;;5429567;26;19936;-62
2024/04/17 02:41:45;;;;;;;;;;;7.60;86.40;;;;;;5429186;26;20071;-62
2024/04/17 02:44:11;;;;;;;;;;;7.60;86.40;;;;;;5424531;26;19929;-63
2024/04/17 02:46:41;;;;;;;;;;;7.60;86.50;;;;;;5427801;26;20001;-62
2024/04/17 02:49:07;;;;;;;;;;;7.60;86.40;;;;;;5426377;26;19929;-61
2024/04/17 02:51:38;;;;;;;;;;;7.70;86.40;;;;;;5423658;26;19929;-64
2024/04/17 02:54:04;;;;;;;;;;;7.70;86.40;;;;;;5426827;26;20355;-63
2024/04/17 02:56:33;;;;;;;;;;;7.60;86.40;;;;;;5428323;26;19929;-63
2024/04/17 02:58:59;;;;;;;;;;;7.60;86.40;;;;;;5427095;26;19929;-62
2024/04/17 03:01:28;;;;;;;;;;;7.60;86.50;;;;;;5429159;26;20386;-63
2024/04/17 03:03:54;;;;;;;;;;;7.60;86.60;;;;;;5425618;26;19929;-62
2024/04/17 03:06:23;;;;;;;;;;;7.60;86.50;;;;;;5422684;26;20317;-62
2024/04/17 03:08:52;;;;;;;;;;;7.60;86.60;;;;;;5429166;26;19936;-63
2024/04/17 03:11:20;;;;;;;;;;;7.60;86.50;;;;;;5428305;26;20029;-62
2024/04/17 03:13:46;;;;;;;;;;;7.60;86.50;;;;;;5429661;26;19997;-63
2024/04/17 03:16:15;;;;;;;;;;;7.60;86.60;;;;;;5428239;26;19928;-64
2024/04/17 03:18:41;;;;;;;;;;;7.60;86.50;;;;;;5429356;26;19929;-62
2024/04/17 03:21:10;;;;;;;;;;;7.60;86.50;;;;;;5428279;26;19939;-60
2024/04/17 03:23:36;;;;;;;;;;;7.60;86.40;;;;;;5429792;26;20730;-60
2024/04/17 03:26:07;;;;;;;;;;;7.70;86.40;;;;;;5424733;26;20364;-60
2024/04/17 03:28:33;;;;;;;;;;;7.70;86.40;;;;;;5429696;26;19983;-61
2024/04/17 03:31:02;;;;;;;;;;;7.70;86.40;;;;;;5426510;26;19929;-59
2024/04/17 03:33:28;;;;;;;;;;;7.70;86.40;;;;;;5428578;26;19929;-60
2024/04/17 03:35:58;;;;;;;;;;;7.70;86.30;;;;;;5428037;26;19932;-61
2024/04/17 03:38:26;;;;;;;;;;;7.70;86.20;;;;;;5422674;26;19933;-60
2024/04/17 03:40:55;;;;;;;;;;;7.70;86.20;;;;;;5424831;26;19939;-60
2024/04/17 03:43:27;;;;;;;;;;;7.70;86.10;;;;;;5426306;26;19941;-60
2024/04/17 03:45:55;;;;;;;;;;;7.70;86.00;;;;;;5426760;26;19960;-59
2024/04/17 03:48:24;;;;;;;;;;;7.70;85.70;;;;;;5423803;26;19929;-60
2024/04/17 03:50:53;;;;;;;;;;;7.60;85.80;;;;;;5423884;26;20270;-61
2024/04/17 03:53:19;;;;;;;;;;;7.70;85.80;;;;;;5421914;26;19933;-62
2024/04/17 03:55:47;;;;;;;;;;;7.70;85.90;;;;;;5422419;26;19935;-60
2024/04/17 03:58:13;;;;;;;;;;;7.70;85.60;;;;;;5424481;26;19936;-61
2024/04/17 04:00:45;;;;;;;;;;;7.70;85.40;;;;;;5423305;26;19935;-60
2024/04/17 04:03:11;;;;;;;;;;;7.70;85.30;;;;;;5426617;26;19929;-61
2024/04/17 04:05:40;;;;;;;;;;;7.70;85.20;;;;;;5424317;26;19928;-60
2024/04/17 04:08:06;;;;;;;;;;;7.70;85.10;;;;;;5425136;26;19997;-60
2024/04/17 04:10:35;;;;;;;;;;;7.70;85.10;;;;;;5424416;26;19936;-60
2024/04/17 04:13:01;;;;;;;;;;;7.70;85.10;;;;;;5416678;26;20006;-60
2024/04/17 04:15:29;;;;;;;;;;;7.70;85.00;;;;;;5430897;26;19959;-60
2024/04/17 04:17:58;;;;;;;;;;;7.70;84.90;;;;;;5421197;26;19936;-61
2024/04/17 04:20:27;;;;;;;;;;;7.70;84.60;;;;;;5421903;26;19961;-60
2024/04/17 04:22:53;;;;;;;;;;;7.70;84.60;;;;;;5424235;26;19990;-60
2024/04/17 04:25:21;;;;;;;;;;;7.70;84.30;;;;;;5420080;26;20392;-65
2024/04/17 04:27:48;;;;;;;;;;;7.70;84.20;;;;;;5424761;26;20328;-60
2024/04/17 04:30:16;;;;;;;;;;;7.60;83.90;;;;;;5424030;26;19929;-59
2024/04/17 04:32:42;;;;;;;;;;;7.60;83.80;;;;;;5422976;26;19928;-71
2024/04/17 04:35:14;;;;;;;;;;;7.70;83.80;;;;;;5423823;26;19940;-71
2024/04/17 04:37:40;;;;;;;;;;;7.70;83.60;;;;;;5425037;26;19936;-71
2024/04/17 04:40:09;;;;;;;;;;;7.70;83.40;;;;;;5424417;26;19998;-71
2024/04/17 04:42:35;;;;;;;;;;;7.60;83.60;;;;;;5422398;26;19990;-69
2024/04/17 04:45:04;;;;;;;;;;;7.70;83.60;;;;;;5423505;26;19933;-70
2024/04/17 04:47:31;;;;;;;;;;;7.70;83.70;;;;;;5425956;26;19956;-71
2024/04/17 04:49:59;;;;;;;;;;;7.70;83.80;;;;;;5423219;26;19929;-70
2024/04/17 04:52:28;;;;;;;;;;;7.70;83.90;;;;;;5425349;26;19933;-70
2024/04/17 04:54:57;;;;;;;;;;;7.70;84.00;;;;;;5421357;26;19937;-70
2024/04/17 04:57:23;;;;;;;;;;;7.70;84.00;;;;;;5426856;26;19951;-71
2024/04/17 04:59:52;;;;;;;;;;;7.70;83.90;;;;;;5426334;26;19935;-71
2024/04/17 05:02:18;;;;;;;;;;;7.70;83.80;;;;;;5424820;26;19936;-72
2024/04/17 05:04:47;;;;;;;;;;;7.80;83.80;;;;;;5417077;26;20395;-72
2024/04/17 05:07:13;;;;;;;;;;;7.70;83.60;;;;;;5415254;26;19996;-70
2024/04/17 05:09:44;;;;;;;;;;;7.80;83.60;;;;;;5416531;26;19929;-71
2024/04/17 05:12:10;;;;;;;;;;;7.70;83.40;;;;;;5419272;26;19929;-72
2024/04/17 05:14:40;;;;;;;;;;;7.70;83.30;;;;;;5418541;26;19997;-71
2024/04/17 05:17:06;;;;;;;;;;;7.70;83.20;;;;;;5411035;26;19929;-71
2024/04/17 05:19:35;;;;;;;;;;;7.70;83.20;;;;;;5420506;26;20002;-70
2024/04/17 05:22:01;;;;;;;;;;;7.70;83.30;;;;;;5413921;26;20362;-71
2024/04/17 05:24:30;;;;;;;;;;;7.70;83.40;;;;;;5448904;26;20271;-72
2024/04/17 05:26:58;;;;;;;;;;;7.70;83.50;;;;;;5452181;26;20264;-71
2024/04/17 05:29:27;;;;;;;;;;;7.80;83.50;;;;;;5453926;26;19978;-72
2024/04/17 05:31:53;;;;;;;;;;;7.80;83.40;;;;;;5453882;26;19956;-71
2024/04/17 05:34:22;;;;;;;;;;;7.80;83.40;;;;;;5453108;26;19928;-72
2024/04/17 05:36:48;;;;;;;;;;;7.80;83.40;;;;;;5458598;26;19933;-72
2024/04/17 05:39:16;;;;;;;;;;;7.90;83.30;;;;;;5450013;26;20565;-73
2024/04/17 05:41:42;;;;;;;;;;;7.90;83.40;;;;;;5457513;26;19977;-61
2024/04/17 05:44:14;;;;;;;;;;;7.90;83.40;;;;;;5448868;26;19980;-61
2024/04/17 05:46:40;;;;;;;;;;;7.90;83.40;;;;;;5456702;26;19928;-63
2024/04/17 05:49:09;;;;;;;;;;;7.90;83.40;;;;;;5444384;26;19935;-60
2024/04/17 05:51:35;;;;;;;;;;;7.90;83.30;;;;;;5459710;26;19944;-60
2024/04/17 05:54:03;;;;;;;;;;;8.00;83.30;;;;;;5444989;26;19942;-61
2024/04/17 05:56:30;;;;;;;;;;;8.00;83.40;;;;;;5456967;26;20375;-60
2024/04/17 05:58:58;;;;;;;;;;;7.90;83.60;;;;;;5448515;26;19964;-60
2024/04/17 06:01:27;;;;;;;;;;;8.00;83.50;;;;;;5452326;26;20359;-60
2024/04/17 06:03:56;;;;;;;;;;;8.00;83.60;;;;;;5452931;26;19974;-61
2024/04/17 06:06:22;;;;;;;;;;;8.00;83.50;;;;;;5453625;26;19979;-60
2024/04/17 06:08:51;;;;;;;;;;;8.00;83.40;;;;;;5458359;26;19936;-61
2024/04/17 06:11:17;;;;;;;;;;;8.00;83.50;;;;;;5455940;26;19928;-60
2024/04/17 06:13:46;;;;;;;;;;;8.00;83.50;;;;;;5444346;26;19929;-60
2024/04/17 06:16:12;;;;;;;;;;;8.00;83.50;;;;;;5449391;26;20332;-61
2024/04/17 06:18:43;;;;;;;;;;;8.00;83.30;;;;;;5450615;26;19934;-61
2024/04/17 06:21:09;;;;;;;;;;;8.10;83.50;;;;;;5440132;26;19936;-60
2024/04/17 06:23:38;;;;;;;;;;;8.10;83.50;;;;;;5458867;26;20371;-60
2024/04/17 06:26:04;;;;;;;;;;;8.10;83.60;;;;;;5456691;26;19939;-62
2024/04/17 06:28:33;;;;;;;;;;;8.10;83.60;;;;;;5460316;26;20392;-61
2024/04/17 06:30:59;;;;;;;;;;;8.10;83.70;;;;;;5453606;26;20572;-61
2024/04/17 06:33:27;;;;;;;;;;;8.10;83.70;;;;;;5454921;26;19970;-61
2024/04/17 06:35:56;;;;;;;;;;;8.20;83.50;;;;;;5461286;26;20363;-60
2024/04/17 06:38:25;;;;;;;;;;;8.20;83.60;;;;;;5458328;26;20379;-60
2024/04/17 06:40:52;;;;;;;;;;;8.30;83.50;;;;;;5452728;26;19948;-60
2024/04/17 06:43:20;;;;;;;;;;;8.40;83.50;;;;;;5447743;26;19972;-63
2024/04/17 06:45:46;;;;;;;;;;;8.40;83.50;;;;;;5456329;26;19932;-61
2024/04/17 06:48:15;;;;;;;;;;;8.40;83.20;;;;;;5460335;26;20004;-59
2024/04/17 06:50:41;;;;;;;;;;;8.40;83.00;;;;;;5455900;26;19927;-60
2024/04/17 06:53:13;;;;;;;;;;;8.50;83.30;;;;;;5455020;26;19997;-60
2024/04/17 06:55:41;;;;;;;;;;;8.50;82.80;;;;;;5454726;26;19935;-61
2024/04/17 06:58:10;;;;;;;;;;;8.60;83.40;;;;;;5458995;26;19935;-60
2024/04/17 07:00:36;;;;;;;;;;;8.60;83.30;;;;;;5451675;26;19971;-61
2024/04/17 07:03:05;;;;;;;;;;;8.60;83.30;;;;;;5453023;26;19932;-61
2024/04/17 07:05:31;;;;;;;;;;;8.60;83.00;;;;;;5461786;26;20355;-61
2024/04/17 07:08:00;;;;;;;;;;;8.60;82.90;;;;;;5458532;26;20026;-61
2024/04/17 07:10:28;;;;;;;;;;;8.60;83.10;;;;;;5455530;26;19935;-61
2024/04/17 07:12:57;;;;;;;;;;;8.70;82.70;;;;;;5456929;26;19998;-60
2024/04/17 07:15:23;;;;;;;;;;;8.80;82.10;;;;;;5454871;26;19940;-61
2024/04/17 07:17:52;;;;;;;;;;;9.00;81.60;;;;;;5455439;26;19927;-60
2024/04/17 07:20:18;;;;;;;;;;;9.20;80.80;;;;;;5456762;26;19928;-61
2024/04/17 07:22:47;;;;;;;;;;;9.60;80.00;;;;;;5459507;26;20016;-61
2024/04/17 07:25:41;;;;;;;;;;;9.70;79.70;;;;;;5463132;26;19928;-61
2024/04/17 07:28:14;;;;;;;;;;;9.70;79.40;;;;;;5452510;26;19935;-60
2024/04/17 07:30:41;;;;;;;;;;;9.60;79.20;;;;;;5460058;26;19936;-61
2024/04/17 07:33:09;;;;;;;;;;;9.60;79.30;;;;;;5452688;26;19936;-61
2024/04/17 07:35:35;;;;;;;;;;;9.60;79.70;;;;;;5465022;26;19932;-61
2024/04/17 07:38:04;;;;;;;;;;;9.50;79.70;;;;;;5450425;26;19940;-61
2024/04/17 07:40:30;;;;;;;;;;;9.40;80.10;;;;;;5462239;26;22187;-61
2024/04/17 07:42:59;;;;;;;;;;;9.40;80.30;;;;;;5460361;26;19935;-59
2024/04/17 07:45:27;;;;;;;;;;;9.30;80.40;;;;;;5460796;26;20030;-61
2024/04/17 07:47:56;;;;;;;;;;;9.30;80.50;;;;;;5458566;26;20296;-61
2024/04/17 07:50:22;;;;;;;;;;;9.30;80.30;;;;;;5465825;26;19940;-62
2024/04/17 07:52:52;;;;;;;;;;;9.30;80.60;;;;;;5451391;26;19928;-62
2024/04/17 07:55:18;;;;;;;;;;;9.30;79.80;;;;;;5456455;26;19939;-60
2024/04/17 07:57:46;;;;;;;;;;;9.40;79.20;;;;;;5457551;26;19997;-61
2024/04/17 08:00:13;;;;;;;;;;;9.50;78.30;;;;;;5458157;26;19955;-60
2024/04/17 08:02:45;;;;;;;;;;;9.50;78.00;;;;;;5458489;26;21210;-63
2024/04/17 08:05:12;;;;;;;;;;;9.50;77.10;;;;;;5459857;26;20066;-63
2024/04/17 08:07:41;;;;;;;;;;;9.50;76.40;;;;;;5454674;26;19935;-63
2024/04/17 08:10:08;;;;;;;;;;;9.50;75.80;;;;;;5453190;26;19929;-63
2024/04/17 08:12:40;;;;;;;;;;;9.60;75.70;;;;;;5460510;26;19940;-63
2024/04/17 08:15:06;;;;;;;;;;;9.60;75.20;;;;;;5460267;26;20372;-63
2024/04/17 08:17:35;;;;;;;;;;;9.70;74.70;;;;;;5452139;26;19928;-63
2024/04/17 08:20:04;;;;;;;;;;;9.70;74.20;;;;;;5463868;26;19944;-63
2024/04/17 08:22:32;;;;;;;;;;;9.70;73.60;;;;;;5437689;26;19928;-63
2024/04/17 08:24:58;;;;;;;;;;;9.70;73.30;;;;;;5466507;26;19929;-63
2024/04/17 08:27:27;;;;;;;;;;;9.80;73.20;;;;;;5454590;26;19978;-62
2024/04/17 08:29:53;;;;;;;;;;;9.90;72.70;;;;;;5462787;26;20019;-64
2024/04/17 08:32:22;;;;;;;;;;;10.10;72.30;;;;;;5453966;26;20375;-63
2024/04/17 08:34:48;;;;;;;;;;;10.20;71.90;;;;;;5465271;26;20034;-64
2024/04/17 08:37:19;;;;;;;;;;;10.20;71.50;;;;;;5457670;26;19936;-63
2024/04/17 08:39:46;;;;;;;;;;;10.20;71.60;;;;;;5461049;26;19935;-62
2024/04/17 08:42:17;;;;;;;;;;;10.20;71.50;;;;;;5458972;26;19928;-64
2024/04/17 08:44:43;;;;;;;;;;;10.10;71.00;;;;;;5460518;26;19936;-64
2024/04/17 08:47:12;;;;;;;;;;;10.10;69.50;;;;;;5459403;26;20379;-64
2024/04/17 08:49:39;;;;;;;;;;;10.10;69.70;;;;;;5462246;26;20018;-65
2024/04/17 08:52:08;;;;;;;;;;;10.10;69.30;;;;;;5457606;26;19987;-64
2024/04/17 08:54:40;;;;;;;;;;;10.30;68.90;;;;;;5461606;26;19957;-64
2024/04/17 08:57:09;;;;;;;;;;;10.50;68.20;;;;;;5462580;26;19962;-64
2024/04/17 08:59:35;;;;;;;;;;;10.80;67.30;;;;;;5461758;26;19936;-63
2024/04/17 09:02:04;;;;;;;;;;;10.90;66.70;;;;;;5460315;26;19935;-63
2024/04/17 09:04:31;;;;;;;;;;;11.10;66.30;;;;;;5463067;26;20263;-64
2024/04/17 09:07:00;;;;;;;;;;;11.20;65.10;;;;;;5458355;26;19970;-62
2024/04/17 09:09:26;;;;;;;;;;;11.30;63.80;;;;;;5461919;26;19935;-62
2024/04/17 09:11:57;;;;;;;;;;;11.40;62.40;;;;;;5459850;26;19940;-71
2024/04/17 09:14:24;;;;;;;;;;;11.40;62.10;;;;;;5460805;26;19948;-72
2024/04/17 09:16:52;;;;;;;;;;;11.40;62.40;;;;;;5445989;26;20320;-73
2024/04/17 09:19:18;;;;;;;;;;;11.50;62.10;;;;;;5457059;26;19996;-73
2024/04/17 09:21:47;;;;;;;;;;;11.60;62.00;;;;;;5453067;26;20032;-74
2024/04/17 09:24:13;;;;;;;;;;;11.70;61.60;;;;;;5460259;26;19928;-72
2024/04/17 09:26:43;;;;;;;;;;;11.80;61.50;;;;;;5451822;26;19963;-72
2024/04/17 09:29:14;;;;;;;;;;;11.80;62.10;;;;;;5460721;26;20328;-73
2024/04/17 09:31:45;;;;;;;;;;;11.70;61.70;;;;;;5459322;26;19966;-72
2024/04/17 09:34:12;;;;;;;;;;;11.70;61.70;;;;;;5453156;26;19935;-72
2024/04/17 09:36:45;;;;;;;;;;;11.70;61.30;;;;;;5453771;26;20001;-72
2024/04/17 09:39:11;;;;;;;;;;;11.70;60.80;;;;;;5461346;26;19935;-72
2024/04/17 09:41:42;;;;;;;;;;;11.90;59.90;;;;;;5456384;26;19935;-72
2024/04/17 09:44:11;;;;;;;;;;;12.10;59.80;;;;;;5455926;26;19927;-72
2024/04/17 09:46:40;;;;;;;;;;;12.20;58.50;;;;;;5458136;26;19933;-72
2024/04/17 09:49:12;;;;;;;;;;;12.40;58.60;;;;;;5456594;26;20515;-72
2024/04/17 09:51:42;;;;;;;;;;;12.60;58.10;;;;;;5453377;26;20271;-73
2024/04/17 09:54:10;;;;;;;;;;;12.80;57.60;;;;;;5457530;26;19928;-72
2024/04/17 09:56:39;;;;;;;;;;;12.90;57.80;;;;;;5457866;26;19939;-72
2024/04/17 09:59:06;;;;;;;;;;;12.90;58.00;;;;;;5461727;26;19997;-71
2024/04/17 10:01:39;;;;;;;;;;;12.90;56.50;;;;;;5454874;26;19928;-72
2024/04/17 10:04:07;;;;;;;;;;;12.90;54.60;;;;;;5454786;26;20367;-72
2024/04/17 10:06:37;;;;;;;;;;;12.80;53.40;;;;;;5459545;26;19929;-74
2024/04/17 10:09:05;;;;;;;;;;;12.80;53.40;;;;;;5453296;26;19937;-71
2024/04/17 10:11:34;;;;;;;;;;;12.80;53.40;;;;;;5444709;26;20373;-72
2024/04/17 10:14:01;;;;;;;;;;;12.80;52.00;;;;;;5452914;26;19928;-72
2024/04/17 10:16:30;;;;;;;;;;;12.80;51.90;;;;;;5455753;26;19935;-72
2024/04/17 10:18:59;;;;;;;;;;;12.70;52.10;;;;;;5458071;26;19939;-73
2024/04/17 10:21:28;;;;;;;;;;;12.70;52.40;;;;;;5460074;26;20260;-60
2024/04/17 10:23:58;;;;;;;;;;;12.80;52.30;;;;;;5448709;26;19935;-61
2024/04/17 10:26:37;;;;;;;;;;;12.90;51.60;;;;;;5461054;26;19935;-62
2024/04/17 10:29:03;;;;;;;;;;;13.10;51.60;;;;;;5459573;26;19940;-62
2024/04/17 10:31:35;;;;;;;;;;;13.20;51.20;;;;;;5453703;26;19937;-61
2024/04/17 10:34:06;;;;;;;;;;;13.30;51.60;;;;;;5453029;26;19947;-61
2024/04/17 10:36:35;;;;;;;;;;;13.40;51.70;;;;;;5461027;26;19935;-62
2024/04/17 10:39:02;;;;;;;;;;;13.50;51.50;;;;;;5452777;26;19995;-61
2024/04/17 10:41:31;;;;;;;;;;;13.40;50.80;;;;;;5458290;26;19935;-61
2024/04/17 10:43:57;;;;;;;;;;;13.50;51.20;;;;;;5456134;26;19928;-61
2024/04/17 10:46:26;;;;;;;;;;;13.40;50.10;;;;;;5455256;26;20149;-60
2024/04/17 10:48:52;;;;;;;;;;;13.50;50.40;;;;;;5453748;26;19936;-61
2024/04/17 10:51:23;;;;;;;;;;;13.50;49.90;;;;;;5461524;26;19960;-61
2024/04/17 10:53:49;;;;;;;;;;;13.60;48.80;;;;;;5456591;26;19972;-62
2024/04/17 10:56:18;;;;;;;;;;;13.60;46.80;;;;;;5462470;26;20371;-62
2024/04/17 10:58:44;;;;;;;;;;;13.70;45.80;;;;;;5460236;26;19940;-61
2024/04/17 11:01:16;;;;;;;;;;;13.80;45.50;;;;;;5461959;26;19936;-61
2024/04/17 11:03:43;;;;;;;;;;;13.90;46.20;;;;;;5459123;26;19928;-60
2024/04/17 11:06:12;;;;;;;;;;;13.90;45.50;;;;;;5462588;26;19935;-63
2024/04/17 11:08:41;;;;;;;;;;;13.90;45.20;;;;;;5458785;26;19932;-63
2024/04/17 11:11:12;;;;;;;;;;;13.80;45.20;;;;;;5459151;26;19929;-62
2024/04/17 11:13:40;;;;;;;;;;;13.80;45.50;;;;;;5459653;26;19929;-62
2024/04/17 11:16:09;;;;;;;;;;;13.80;45.80;;;;;;5460471;26;19940;-62
2024/04/17 11:18:35;;;;;;;;;;;13.80;45.80;;;;;;5456804;26;19936;-61
2024/04/17 11:21:04;;;;;;;;;;;13.70;46.60;;;;;;5465190;26;20001;-61
2024/04/17 11:23:37;;;;;;;;;;;13.60;47.50;;;;;;5458909;26;20419;-62
2024/04/17 11:26:08;;;;;;;;;;;13.60;48.20;;;;;;5454001;26;20000;-62
2024/04/17 11:28:34;;;;;;;;;;;13.50;48.40;;;;;;5460795;26;19927;-61
2024/04/17 11:31:03;;;;;;;;;;;13.60;49.10;;;;;;5459534;26;19943;-65
2024/04/17 11:33:29;;;;;;;;;;;13.70;48.40;;;;;;5461507;26;19932;-66
2024/04/17 11:36:08;;;;;;;;;;;13.70;46.50;;;;;;5462289;26;19928;-66
2024/04/17 11:38:34;;;;;;;;;;;13.90;46.30;;;;;;5461454;26;19929;-66
2024/04/17 11:41:03;;;;;;;;;;;14.10;46.70;;;;;;5456650;26;19936;-66
2024/04/17 11:43:32;;;;;;;;;;;14.10;46.40;;;;;;5461115;26;19940;-66
2024/04/17 11:46:01;;;;;;;;;;;14.10;46.90;;;;;;5462880;26;19996;-66
2024/04/17 11:48:27;;;;;;;;;;;14.20;46.20;;;;;;5458300;26;19928;-66
2024/04/17 11:50:56;;;;;;;;;;;14.20;46.90;;;;;;5464969;26;19956;-66
2024/04/17 11:53:22;;;;;;;;;;;14.10;47.20;;;;;;5459538;26;19929;-66
2024/04/17 11:55:51;;;;;;;;;;;14.10;47.00;;;;;;5460671;26;19997;-66
2024/04/17 11:58:17;;;;;;;;;;;13.90;47.10;;;;;;5461021;26;20365;-66
2024/04/17 12:00:49;;;;;;;;;;;13.90;47.60;;;;;;5459718;26;19996;-66
2024/04/17 12:03:15;;;;;;;;;;;13.90;47.60;;;;;;5455039;26;19996;-66
2024/04/17 12:05:44;;;;;;;;;;;13.80;47.80;;;;;;5458521;26;20685;-66
2024/04/17 12:08:10;;;;;;;;;;;13.80;48.10;;;;;;5456972;26;19936;-66
2024/04/17 12:10:38;;;;;;;;;;;13.80;48.40;;;;;;5455054;26;19960;-66
2024/04/17 12:13:04;;;;;;;;;;;13.70;47.90;;;;;;5465531;26;19935;-68
2024/04/17 12:15:33;;;;;;;;;;;13.70;47.60;;;;;;5461332;26;19934;-67
2024/04/17 12:18:02;;;;;;;;;;;13.80;48.30;;;;;;5456830;26;19943;-66
2024/04/17 12:20:30;;;;;;;;;;;13.90;49.00;;;;;;5448683;26;20271;-66
2024/04/17 12:22:57;;;;;;;;;;;14.10;48.40;;;;;;5461996;26;20378;-65
2024/04/17 12:28:10;;;;;;;;;;;14.40;47.40;;;;;;5455599;26;19932;-66
2024/04/17 12:30:39;;;;;;;;;;;14.60;47.70;;;;;;5462184;26;20427;-66
2024/04/17 12:33:10;;;;;;;;;;;14.70;47.50;;;;;;5457554;26;21664;-66
2024/04/17 12:35:39;;;;;;;;;;;14.60;47.30;;;;;;5456927;26;19935;-66
2024/04/17 12:38:08;;;;;;;;;;;14.60;47.10;;;;;;5460327;26;19939;-66
2024/04/17 12:40:36;;;;;;;;;;;14.50;47.20;;;;;;5452505;26;19944;-65
2024/04/17 12:43:06;;;;;;;;;;;14.40;46.70;;;;;;5459455;26;19928;-61
2024/04/17 12:45:35;;;;;;;;;;;14.30;47.30;;;;;;5459918;26;19927;-62
2024/04/17 12:48:04;;;;;;;;;;;14.10;47.30;;;;;;5455869;26;20364;-62
2024/04/17 12:50:32;;;;;;;;;;;14.10;48.00;;;;;;5460848;26;20253;-62
2024/04/17 12:53:02;;;;;;;;;;;14.20;47.40;;;;;;5454140;26;19932;-61
2024/04/17 12:55:31;;;;;;;;;;;14.30;47.20;;;;;;5422660;26;19928;-62
2024/04/17 12:57:57;;;;;;;;;;;14.30;47.10;;;;;;5422390;26;19929;-62
2024/04/17 13:00:27;;;;;;;;;;;14.20;46.20;;;;;;5419756;26;20037;-62
2024/04/17 13:02:53;;;;;;;;;;;14.20;47.20;;;;;;5418233;26;19935;-61
2024/04/17 13:05:21;;;;;;;;;;;14.10;48.20;;;;;;5425514;26;19940;-62
2024/04/17 13:07:50;;;;;;;;;;;14.00;47.10;;;;;;5420041;26;19929;-63
2024/04/17 13:10:19;;;;;;;;;;;14.00;47.00;;;;;;5419566;26;20353;-61
2024/04/17 13:12:45;;;;;;;;;;;14.00;46.60;;;;;;5428562;26;19928;-61
2024/04/17 13:15:14;;;;;;;;;;;13.90;46.60;;;;;;5420966;26;19929;-62
2024/04/17 13:17:42;;;;;;;;;;;13.90;47.60;;;;;;5418181;26;20206;-62
2024/04/17 13:20:11;;;;;;;;;;;13.80;48.30;;;;;;5418019;26;19942;-64
2024/04/17 13:22:37;;;;;;;;;;;13.80;48.70;;;;;;5421930;26;19935;-63
2024/04/17 13:25:08;;;;;;;;;;;13.90;47.70;;;;;;5414552;26;20368;-61
2024/04/17 13:27:36;;;;;;;;;;;13.80;46.80;;;;;;5421226;26;19935;-61
2024/04/17 13:30:05;;;;;;;;;;;13.70;46.70;;;;;;5422685;26;20001;-62
2024/04/17 13:32:31;;;;;;;;;;;13.80;46.50;;;;;;5425394;26;19936;-62
2024/04/17 13:35:00;;;;;;;;;;;13.80;47.20;;;;;;5416673;26;19936;-62
2024/04/17 13:37:26;;;;;;;;;;;13.80;46.70;;;;;;5419364;26;19997;-62
2024/04/17 13:39:56;;;;;;;;;;;13.80;47.20;;;;;;5421292;26;20296;-62
2024/04/17 13:42:24;;;;;;;;;;;13.90;46.70;;;;;;5425852;26;19929;-62
2024/04/17 13:44:53;;;;;;;;;;;13.90;46.40;;;;;;5423522;26;19939;-62
2024/04/17 13:47:19;;;;;;;;;;;14.00;46.70;;;;;;5419812;26;19928;-60
2024/04/17 13:49:48;;;;;;;;;;;14.10;47.10;;;;;;5424156;26;20303;-62
2024/04/17 13:52:14;;;;;;;;;;;14.10;47.20;;;;;;5420929;26;19929;-69
2024/04/17 13:54:43;;;;;;;;;;;14.00;47.90;;;;;;5418005;26;19979;-71
2024/04/17 13:57:09;;;;;;;;;;;13.90;48.20;;;;;;5418216;26;19936;-70
2024/04/17 13:59:40;;;;;;;;;;;13.80;48.60;;;;;;5423496;26;19937;-70
2024/04/17 14:02:06;;;;;;;;;;;13.70;49.10;;;;;;5418795;26;19928;-71
2024/04/17 14:04:35;;;;;;;;;;;13.60;49.80;;;;;;5422066;26;19928;-71
2024/04/17 14:07:02;;;;;;;;;;;13.50;50.60;;;;;;5421508;26;20016;-71
2024/04/17 14:09:30;;;;;;;;;;;13.50;50.70;;;;;;5418814;26;19997;-70
2024/04/17 14:11:56;;;;;;;;;;;13.40;50.70;;;;;;5416269;26;19936;-70
2024/04/17 14:14:26;;;;;;;;;;;13.40;51.00;;;;;;5418935;26;19941;-71
2024/04/17 14:16:56;;;;;;;;;;;13.50;51.10;;;;;;5423179;26;19929;-71
2024/04/17 14:19:25;;;;;;;;;;;13.50;51.40;;;;;;5415410;26;19929;-71
2024/04/17 14:21:51;;;;;;;;;;;13.60;51.30;;;;;;5416950;26;19940;-70
2024/04/17 14:24:20;;;;;;;;;;;13.60;51.00;;;;;;5419441;26;19935;-71
2024/04/17 14:26:46;;;;;;;;;;;13.60;51.40;;;;;;5416597;26;19944;-70
2024/04/17 14:29:15;;;;;;;;;;;13.70;50.90;;;;;;5425787;26;19935;-71
2024/04/17 14:31:41;;;;;;;;;;;13.90;51.20;;;;;;5429086;26;20024;-71